Anzahl Datensätze: 46
min. Temperatur: 13.1 °C
max. Temperatur: 27.5 °C
max. Windgeschwindigkeit: 0.0 km/h
Niederschlagsumme: 0.0 mm
| Datum |
Zeit |
Temp °C |
Feuchte % |
Taupunkt °C |
Luftdruck hPa |
Wind km/h |
Windrichtung |
Strahlung w/m² |
Niederschlag mm |
|---|---|---|---|---|---|---|---|---|---|
| 18.07.2025 | 01:00 | 16.2 | 83 | 13.3 | 1017.9 | 0.0 | WNW | 0 | 0.0 |
| 18.07.2025 | 01:30 | 16.2 | 84 | 13.5 | 1017.8 | 0.0 | WNW | 0 | 0.0 |
| 18.07.2025 | 02:00 | 15.7 | 86 | 13.4 | 1017.5 | 0.0 | WNW | 0 | 0.0 |
| 18.07.2025 | 02:30 | 15.2 | 86 | 12.9 | 1017.2 | 0.0 | WNW | 0 | 0.0 |
| 18.07.2025 | 03:00 | 14.7 | 87 | 12.6 | 1017.3 | 0.0 | WNW | 0 | 0.0 |
| 18.07.2025 | 03:30 | 14.2 | 87 | 12.1 | 1017.2 | 0.0 | WNW | 0 | 0.0 |
| 18.07.2025 | 04:00 | 14.1 | 89 | 12.3 | 1017.0 | 0.0 | WNW | 0 | 0.0 |
| 18.07.2025 | 04:30 | 13.8 | 88 | 11.8 | 1016.9 | 0.0 | WNW | 0 | 0.0 |
| 18.07.2025 | 05:00 | 13.6 | 89 | 11.8 | 1016.8 | 0.0 | WNW | 0 | 0.0 |
| 18.07.2025 | 05:30 | 13.3 | 89 | 11.5 | 1016.8 | 0.0 | WNW | 0 | 0.0 |
| 18.07.2025 | 06:00 | 13.1 | 90 | 11.5 | 1016.9 | 0.0 | WNW | 7 | 0.0 |
| 18.07.2025 | 06:30 | 13.3 | 91 | 11.9 | 1017.0 | 0.0 | WNW | 28 | 0.0 |
| 18.07.2025 | 07:00 | 14.2 | 89 | 12.4 | 1017.0 | 0.0 | WNW | 37 | 0.0 |
| 18.07.2025 | 07:30 | 14.7 | 89 | 12.9 | 1016.9 | 0.0 | WNW | 40 | 0.0 |
| 18.07.2025 | 08:00 | 15.6 | 88 | 13.6 | 1016.9 | 0.0 | WNW | 105 | 0.0 |
| 18.07.2025 | 08:30 | 16.3 | 87 | 14.1 | 1016.8 | 0.0 | WNW | 97 | 0.0 |
| 18.07.2025 | 09:00 | 17.1 | 85 | 14.6 | 1016.9 | 0.0 | WNW | 176 | 0.0 |
| 18.07.2025 | 09:30 | 18.9 | 81 | 15.6 | 1016.8 | 0.0 | WNW | 330 | 0.0 |
| 18.07.2025 | 10:00 | 20.8 | 77 | 16.6 | 1016.7 | 0.0 | NW | 462 | 0.0 |
| 18.07.2025 | 10:30 | 22.7 | 71 | 17.2 | 1016.4 | 0.0 | NW | 496 | 0.0 |
| 18.07.2025 | 11:00 | 22.9 | 61 | 15.0 | 1016.2 | 0.0 | NW | 399 | 0.0 |
| 18.07.2025 | 11:30 | 23.2 | 61 | 15.3 | 1016.1 | 0.0 | NW | 744 | 0.0 |
| 18.07.2025 | 12:00 | 25.2 | 56 | 15.8 | 1015.9 | 0.0 | NW | 805 | 0.0 |
| 18.07.2025 | 12:30 | 25.8 | 54 | 15.8 | 1015.7 | 0.0 | SSW | 777 | 0.0 |
| 18.07.2025 | 13:00 | 25.8 | 54 | 15.8 | 1015.6 | 0.0 | NO | 237 | 0.0 |
| 18.07.2025 | 13:30 | 26.1 | 55 | 16.4 | 1015.5 | 0.0 | SSW | 919 | 0.0 |
| 18.07.2025 | 14:00 | 26.8 | 54 | 16.7 | 1015.2 | 0.0 | NW | 197 | 0.0 |
| 18.07.2025 | 14:30 | 26.5 | 53 | 16.1 | 1015.0 | 0.0 | W | 949 | 0.0 |
| 18.07.2025 | 15:00 | 26.3 | 52 | 15.7 | 1014.8 | 0.0 | O | 969 | 0.0 |
| 18.07.2025 | 15:30 | 27.5 | 52 | 16.8 | 1014.6 | 0.0 | WSW | 854 | 0.0 |
| 18.07.2025 | 16:00 | 27.2 | 52 | 16.5 | 1014.4 | 0.0 | OSO | 860 | 0.0 |
| 18.07.2025 | 16:30 | 26.3 | 53 | 16.0 | 1014.2 | 0.0 | W | 121 | 0.0 |
| 18.07.2025 | 17:00 | 25.9 | 55 | 16.2 | 1013.8 | 0.0 | NW | 128 | 0.0 |
| 18.07.2025 | 17:30 | 25.8 | 55 | 16.1 | 1013.5 | 0.0 | NW | 54 | 0.0 |
| 18.07.2025 | 18:00 | 26.2 | 58 | 17.3 | 1013.3 | 0.0 | WNW | 97 | 0.0 |
| 18.07.2025 | 18:30 | 26.6 | 61 | 18.5 | 1013.1 | 0.0 | W | 60 | 0.0 |
| 18.07.2025 | 19:00 | 26.3 | 62 | 18.4 | 1013.0 | 0.0 | W | 54 | 0.0 |
| 18.07.2025 | 19:30 | 26.1 | 57 | 16.9 | 1013.0 | 0.0 | W | 69 | 0.0 |
| 18.07.2025 | 20:00 | 26.4 | 56 | 16.9 | 1012.9 | 0.0 | W | 28 | 0.0 |
| 18.07.2025 | 20:30 | 26.0 | 57 | 16.8 | 1012.9 | 0.0 | S | 14 | 0.0 |
| 18.07.2025 | 21:00 | 25.3 | 63 | 17.7 | 1012.8 | 0.0 | S | 5 | 0.0 |
| 18.07.2025 | 21:30 | 24.0 | 69 | 18.0 | 1013.0 | 0.0 | S | 0 | 0.0 |
| 18.07.2025 | 22:00 | 22.6 | 73 | 17.5 | 1013.2 | 0.0 | S | 0 | 0.0 |
| 18.07.2025 | 22:30 | 21.5 | 76 | 17.1 | 1013.3 | 0.0 | S | 0 | 0.0 |
| 18.07.2025 | 23:00 | 20.5 | 79 | 16.7 | 1013.4 | 0.0 | S | 0 | 0.0 |
| 18.07.2025 | 23:30 | 19.7 | 81 | 16.3 | 1013.3 | 0.0 | S | 0 | 0.0 |